Worthington, Iowa
Current Conditions -  °F | °C
As of 12:15 PM on Friday 31 Oct 2014 (Local Time) from KMXO Reporting Station
Clear Clear  
Wind Chill: -1°   Ceiling: Unl
Heat Index:   Visibility: 9mi
Dew Point: -7°   Wind: 18mph
Humidity: 45%   Direction: 350°N
Pressure: 30.39"   Gusts: 31mph
Location:  42.4°N, 91.12°W
Report Text: KMXO 311715Z AUTO 35016G27KT 9SM CLR 04/M07 A3039 RMK AO2
Loading
Personal Weather Stations






























Interactive Weather Map
Tropical Storm Tracking
New forecast layout! Learn more

10-Day Weather Forecast

Advertisements
Track Severe Weather on mobile